Time;durP1;ratioP1;P1;durP2;ratioP2;P2;SDS_P1;SDS_P2;PMS_P1;PMS_P2;Temp;Humidity;BMP_temperature;BMP_pressure;BME280_temperature;BME280_humidity;BME280_pressure;Samples;Min_cycle;Max_cycle;Signal;HPM_P1;HPM_P2
2022/08/31 00:04:30;;;;;;;19.95;16.13;;;18.20;99.90;;;;;;5075890;28;20090;-75
2022/08/31 00:06:58;;;;;;;21.35;16.30;;;18.20;99.90;;;;;;5076103;28;20044;-75
2022/08/31 00:09:25;;;;;;;26.65;16.35;;;18.10;99.90;;;;;;5074762;28;20547;-75
2022/08/31 00:11:53;;;;;;;22.73;16.17;;;18.10;99.90;;;;;;5075898;28;20407;-75
2022/08/31 00:14:20;;;;;;;21.98;15.75;;;18.00;99.90;;;;;;5084362;28;20483;-75
2022/08/31 00:16:47;;;;;;;18.25;15.45;;;17.90;99.90;;;;;;5096662;28;20089;-74
2022/08/31 00:19:15;;;;;;;19.33;16.55;;;17.90;99.90;;;;;;5095997;28;20483;-74
2022/08/31 00:21:44;;;;;;;22.83;15.73;;;18.00;99.90;;;;;;5095788;28;20113;-75
2022/08/31 00:24:12;;;;;;;19.98;15.63;;;18.00;99.90;;;;;;5096052;28;20081;-75
2022/08/31 00:26:40;;;;;;;21.98;16.33;;;17.90;99.90;;;;;;5096144;28;20357;-74
2022/08/31 00:29:08;;;;;;;18.63;15.90;;;17.90;99.90;;;;;;5096008;28;20059;-75
2022/08/31 00:31:36;;;;;;;21.10;16.08;;;17.90;99.90;;;;;;5094944;28;20454;-75
2022/08/31 00:34:04;;;;;;;23.20;16.45;;;17.90;99.90;;;;;;5094426;28;20040;-76
2022/08/31 00:36:31;;;;;;;26.42;16.48;;;17.90;99.90;;;;;;5095500;28;20548;-75
2022/08/31 00:39:00;;;;;;;17.88;15.80;;;17.90;99.90;;;;;;5095423;28;20459;-75
2022/08/31 00:41:31;;;;;;;21.17;16.15;;;17.80;99.90;;;;;;5094888;28;20048;-75
2022/08/31 00:44:00;;;;;;;22.85;16.35;;;17.80;99.90;;;;;;5095648;28;20097;-75
2022/08/31 00:46:29;;;;;;;17.63;15.63;;;17.90;99.90;;;;;;5095482;28;20070;-75
2022/08/31 00:49:02;;;;;;;20.95;16.90;;;17.80;99.90;;;;;;5095245;28;20381;-74
2022/08/31 00:51:32;;;;;;;21.85;15.82;;;17.80;99.90;;;;;;5096152;28;20095;-74
2022/08/31 00:54:01;;;;;;;24.20;17.45;;;17.80;99.90;;;;;;5093970;28;20101;-76
2022/08/31 00:56:30;;;;;;;22.27;15.77;;;17.80;99.90;;;;;;5095456;28;20384;-74
2022/08/31 00:58:59;;;;;;;21.60;15.48;;;17.80;99.90;;;;;;5096092;28;20115;-74
2022/08/31 01:01:29;;;;;;;21.92;16.15;;;17.80;99.90;;;;;;5099311;28;20103;-75
2022/08/31 01:03:58;;;;;;;23.08;16.88;;;17.80;99.90;;;;;;5094217;28;20040;-74
2022/08/31 01:06:26;;;;;;;26.00;18.52;;;17.80;99.90;;;;;;5094666;28;20512;-74
2022/08/31 01:08:55;;;;;;;20.67;16.80;;;17.80;99.90;;;;;;5093427;28;20065;-74
2022/08/31 01:11:24;;;;;;;23.17;15.60;;;17.80;99.90;;;;;;5093917;28;20055;-74
2022/08/31 01:13:52;;;;;;;20.50;17.92;;;17.80;99.90;;;;;;5093894;28;20093;-75
2022/08/31 01:16:24;;;;;;;29.30;19.60;;;17.80;99.90;;;;;;5093813;28;20044;-75
2022/08/31 01:18:54;;;;;;;28.60;19.20;;;17.70;99.90;;;;;;5094442;28;20513;-75
2022/08/31 01:21:27;;;;;;;35.15;22.92;;;17.80;99.90;;;;;;5095241;28;20089;-75
2022/08/31 01:23:59;;;;;;;33.63;23.35;;;17.70;99.90;;;;;;5095740;28;20040;-75
2022/08/31 01:26:28;;;;;;;32.42;24.10;;;17.70;99.90;;;;;;5096986;28;20054;-75
2022/08/31 01:28:59;;;;;;;28.10;22.98;;;17.70;99.90;;;;;;5097412;28;20064;-75
2022/08/31 01:31:28;;;;;;;29.40;23.48;;;17.70;99.90;;;;;;5102760;28;20074;-74
2022/08/31 01:33:56;;;;;;;30.30;21.98;;;17.70;99.90;;;;;;5101377;28;20557;-75
2022/08/31 01:36:25;;;;;;;26.48;22.23;;;17.70;99.90;;;;;;5100810;28;20047;-74
2022/08/31 01:38:52;;;;;;;45.10;21.73;;;17.60;99.90;;;;;;5101145;28;20078;-74
2022/08/31 01:41:22;;;;;;;44.03;22.13;;;17.60;99.90;;;;;;5103900;28;20044;-75
2022/08/31 01:43:51;;;;;;;32.78;23.60;;;17.60;99.90;;;;;;5097957;28;20044;-76
2022/08/31 01:46:19;;;;;;;36.28;21.88;;;17.50;99.90;;;;;;5094943;28;20036;-75
2022/08/31 01:48:47;;;;;;;28.02;21.67;;;17.50;99.90;;;;;;5094016;28;20044;-74
2022/08/31 01:51:16;;;;;;;32.78;20.55;;;17.50;99.90;;;;;;5094966;28;20052;-74
2022/08/31 01:53:45;;;;;;;27.85;21.80;;;17.50;99.90;;;;;;5094522;28;20059;-75
2022/08/31 01:56:15;;;;;;;33.08;22.15;;;17.50;99.90;;;;;;5092847;28;20055;-75
2022/08/31 01:58:44;;;;;;;27.38;21.45;;;17.60;99.90;;;;;;5094391;28;20048;-74
2022/08/31 02:01:38;;;;;;;32.88;22.33;;;17.60;99.90;;;;;;5079141;28;20051;-75
2022/08/31 02:04:07;;;;;;;28.65;22.15;;;17.60;99.90;;;;;;5092675;28;20041;-75
2022/08/31 02:06:35;;;;;;;29.48;21.80;;;17.60;99.90;;;;;;5094503;28;20452;-74
2022/08/31 02:09:06;;;;;;;28.08;22.55;;;17.60;99.90;;;;;;5102062;28;20377;-75
2022/08/31 02:11:33;;;;;;;31.50;23.55;;;17.60;99.90;;;;;;5109238;28;20054;-74
2022/08/31 02:14:02;;;;;;;26.45;21.92;;;17.60;99.90;;;;;;5110066;28;20048;-74
2022/08/31 02:16:30;;;;;;;26.67;21.30;;;17.60;99.90;;;;;;5109544;28;20044;-75
2022/08/31 02:18:57;;;;;;;32.53;24.02;;;17.60;99.90;;;;;;5098233;28;20052;-74
2022/08/31 02:21:25;;;;;;;32.17;22.27;;;17.60;99.90;;;;;;5092378;28;20075;-74
2022/08/31 02:23:52;;;;;;;30.38;21.25;;;17.60;99.90;;;;;;5091331;28;20525;-74
2022/08/31 02:26:21;;;;;;;23.85;18.83;;;17.60;99.90;;;;;;5093452;28;20036;-75
2022/08/31 02:28:49;;;;;;;24.35;21.55;;;17.60;99.90;;;;;;5091936;28;20044;-75
2022/08/31 02:31:18;;;;;;;26.50;19.67;;;17.60;99.90;;;;;;5092316;28;20419;-75
2022/08/31 02:33:52;;;;;;;23.90;19.27;;;17.70;99.90;;;;;;5092089;28;20050;-75
2022/08/31 02:36:22;;;;;;;24.92;18.83;;;17.70;99.90;;;;;;5092075;28;20134;-75
2022/08/31 02:38:50;;;;;;;24.05;16.55;;;17.60;99.90;;;;;;5091583;28;20105;-75
2022/08/31 02:41:19;;;;;;;21.38;16.48;;;17.60;99.90;;;;;;5092269;28;20229;-74
2022/08/31 02:43:48;;;;;;;20.98;15.43;;;17.50;99.90;;;;;;5091428;28;20044;-75
2022/08/31 02:46:18;;;;;;;21.40;15.55;;;17.50;99.90;;;;;;5092327;28;20044;-75
2022/08/31 02:48:55;;;;;;;21.40;15.70;;;17.40;99.90;;;;;;5088782;28;20415;-75
2022/08/31 02:51:22;;;;;;;21.17;15.93;;;17.40;99.90;;;;;;5090764;28;20047;-74
2022/08/31 02:53:50;;;;;;;22.48;16.73;;;17.40;99.90;;;;;;5082579;28;20056;-75
2022/08/31 02:56:18;;;;;;;22.67;17.17;;;17.30;99.90;;;;;;5092321;28;20079;-74
2022/08/31 02:58:45;;;;;;;27.20;17.13;;;17.30;99.90;;;;;;5093092;28;20109;-75
2022/08/31 03:01:13;;;;;;;21.10;17.27;;;17.20;99.90;;;;;;5092572;28;20111;-75
2022/08/31 03:03:42;;;;;;;28.90;18.67;;;17.20;99.90;;;;;;5108517;28;20050;-74
2022/08/31 03:06:09;;;;;;;25.05;20.23;;;17.20;99.90;;;;;;5091908;28;20078;-74
2022/08/31 03:08:38;;;;;;;28.10;21.10;;;17.20;99.90;;;;;;5092323;28;20427;-74
2022/08/31 03:11:05;;;;;;;25.45;19.25;;;17.30;99.90;;;;;;5091895;28;20135;-75
2022/08/31 03:13:34;;;;;;;22.58;18.40;;;17.20;99.90;;;;;;5091924;28;20147;-75
2022/08/31 03:16:02;;;;;;;21.23;17.95;;;17.30;99.90;;;;;;5092495;28;20082;-75
2022/08/31 03:18:29;;;;;;;22.40;17.60;;;17.30;99.90;;;;;;5093318;28;20136;-74
2022/08/31 03:20:58;;;;;;;22.35;17.65;;;17.30;99.90;;;;;;5093046;28;20046;-74
2022/08/31 03:23:26;;;;;;;21.52;17.48;;;17.30;99.90;;;;;;5092242;28;20059;-74
2022/08/31 03:25:54;;;;;;;22.27;16.88;;;17.30;99.90;;;;;;5092221;28;20044;-75
2022/08/31 03:28:22;;;;;;;22.48;16.92;;;17.20;99.90;;;;;;5092646;28;20423;-74
2022/08/31 03:31:15;;;;;;;19.27;17.13;;;17.20;99.90;;;;;;5097427;28;20090;-74
2022/08/31 03:33:43;;;;;;;20.45;18.27;;;17.20;99.90;;;;;;5095482;28;20071;-75
2022/08/31 03:36:14;;;;;;;21.92;16.52;;;17.20;99.90;;;;;;5095368;28;20044;-75
2022/08/31 03:38:42;;;;;;;23.80;17.27;;;17.30;99.90;;;;;;5095312;28;20159;-74
2022/08/31 03:41:11;;;;;;;22.83;19.00;;;17.30;99.90;;;;;;5096125;28;20446;-74
2022/08/31 03:43:38;;;;;;;23.23;18.63;;;17.20;99.90;;;;;;5095456;28;20100;-75
2022/08/31 03:46:06;;;;;;;23.13;18.60;;;17.20;99.90;;;;;;5096914;28;20051;-75
2022/08/31 03:48:34;;;;;;;29.88;20.42;;;17.20;99.90;;;;;;5095547;28;20050;-74
2022/08/31 03:51:02;;;;;;;26.83;21.23;;;17.10;99.90;;;;;;5094923;28;20043;-74
2022/08/31 03:53:35;;;;;;;26.80;20.30;;;17.10;99.90;;;;;;5080687;28;20050;-74
2022/08/31 03:56:07;;;;;;;33.10;21.30;;;17.00;99.90;;;;;;5090906;28;20048;-74
2022/08/31 03:58:38;;;;;;;31.38;21.85;;;17.00;99.90;;;;;;5087560;28;20052;-74
2022/08/31 04:01:07;;;;;;;32.15;22.50;;;17.00;99.90;;;;;;5095068;28;20050;-74
2022/08/31 04:03:57;;;;;;;35.40;21.77;;;17.00;99.90;;;;;;5067901;28;20072;-73
2022/08/31 04:06:45;;;;;;;34.53;23.05;;;17.00;99.90;;;;;;5074844;28;20052;-74
2022/08/31 04:09:32;;;;;;;38.15;24.27;;;17.00;99.90;;;;;;5096369;28;20117;-74
2022/08/31 04:12:19;;;;;;;49.42;24.35;;;17.00;99.90;;;;;;5096084;28;20518;-75
2022/08/31 04:15:24;;;;;;;45.28;25.02;;;16.90;99.90;;;;;;5077427;28;20078;-73
2022/08/31 04:18:10;;;;;;;38.92;25.70;;;17.00;99.90;;;;;;5095693;28;20058;-74
2022/08/31 04:20:45;;;;;;;28.70;23.57;;;17.10;99.90;;;;;;5094489;28;20127;-73
2022/08/31 04:23:12;;;;;;;35.42;25.00;;;17.10;99.90;;;;;;5094008;28;20461;-74
2022/08/31 04:25:48;;;;;;;29.33;23.85;;;17.10;99.90;;;;;;5094702;28;20507;-75
2022/08/31 04:28:16;;;;;;;31.45;22.65;;;17.10;99.90;;;;;;5095436;28;20098;-74
2022/08/31 04:30:44;;;;;;;34.47;22.40;;;17.10;99.90;;;;;;5094073;28;20052;-75
2022/08/31 04:33:15;;;;;;;27.02;22.83;;;17.10;99.90;;;;;;5094385;28;20525;-74
2022/08/31 04:35:43;;;;;;;29.75;23.77;;;17.10;99.90;;;;;;5098137;28;20055;-74
2022/08/31 04:38:11;;;;;;;34.72;23.05;;;17.10;99.90;;;;;;5096073;28;20134;-74
2022/08/31 04:40:40;;;;;;;32.45;23.45;;;17.20;99.90;;;;;;5093337;28;20143;-75
2022/08/31 04:43:09;;;;;;;32.90;22.70;;;17.20;99.90;;;;;;5093756;28;20048;-75
2022/08/31 04:45:41;;;;;;;30.58;22.83;;;17.20;99.90;;;;;;5095102;28;20123;-75
2022/08/31 04:48:08;;;;;;;30.27;21.73;;;17.20;99.90;;;;;;5096137;28;20507;-74
2022/08/31 04:50:35;;;;;;;32.03;22.05;;;17.30;99.90;;;;;;5096751;28;20410;-74
2022/08/31 04:53:09;;;;;;;26.77;20.63;;;17.30;99.90;;;;;;5095536;28;20040;-74
2022/08/31 04:55:39;;;;;;;30.52;20.45;;;17.30;99.90;;;;;;5091916;28;20060;-74
2022/08/31 04:58:11;;;;;;;25.98;20.23;;;17.30;99.90;;;;;;5095616;28;20457;-75
2022/08/31 05:00:41;;;;;;;34.03;21.77;;;17.40;99.90;;;;;;5092604;28;20044;-73
2022/08/31 05:03:49;;;;;;;30.63;22.38;;;17.40;99.90;;;;;;5074467;28;20059;-74
2022/08/31 05:06:17;;;;;;;36.63;23.92;;;17.40;99.90;;;;;;5073218;28;20132;-74
2022/08/31 05:08:45;;;;;;;34.47;23.58;;;17.50;99.90;;;;;;5072963;28;20040;-74
2022/08/31 05:11:14;;;;;;;33.08;22.85;;;17.60;99.90;;;;;;5073023;28;20041;-74
2022/08/31 05:13:43;;;;;;;37.65;24.67;;;17.60;99.90;;;;;;5073266;28;20040;-74
2022/08/31 05:16:15;;;;;;;41.60;31.73;;;17.70;99.90;;;;;;5093035;28;20415;-74
2022/08/31 05:18:44;;;;;;;34.47;26.65;;;17.70;99.90;;;;;;5093169;28;20040;-75
2022/08/31 05:21:13;;;;;;;48.30;24.85;;;17.80;99.90;;;;;;5092010;28;20035;-75
2022/08/31 05:23:41;;;;;;;35.70;25.50;;;17.90;99.90;;;;;;5090832;28;20043;-75
2022/08/31 05:26:09;;;;;;;36.90;24.20;;;18.00;99.90;;;;;;5093282;28;20144;-75
2022/08/31 05:28:38;;;;;;;39.28;26.48;;;18.00;99.90;;;;;;5092786;28;20048;-76
2022/08/31 05:31:07;;;;;;;33.78;24.23;;;18.00;99.90;;;;;;5091621;28;20514;-74
2022/08/31 05:33:40;;;;;;;34.13;25.05;;;18.10;99.90;;;;;;5094101;28;20044;-75
2022/08/31 05:36:08;;;;;;;43.00;24.88;;;18.20;99.90;;;;;;5100518;28;20138;-75
2022/08/31 05:38:36;;;;;;;37.80;23.60;;;18.30;99.90;;;;;;5093452;28;20052;-74
2022/08/31 05:41:05;;;;;;;39.63;24.58;;;18.40;99.90;;;;;;5085527;28;20044;-74
2022/08/31 05:43:33;;;;;;;41.20;21.25;;;18.60;99.90;;;;;;5080993;28;20054;-74
2022/08/31 05:46:01;;;;;;;40.85;22.27;;;18.70;99.90;;;;;;5080403;28;20045;-74
2022/08/31 05:48:32;;;;;;;37.85;18.77;;;18.80;99.90;;;;;;5081750;28;20116;-74
2022/08/31 05:51:02;;;;;;;23.13;18.17;;;19.00;99.90;;;;;;5076665;28;20040;-75
2022/08/31 05:53:29;;;;;;;21.70;15.52;;;19.00;99.90;;;;;;5081194;28;20143;-74
2022/08/31 05:56:01;;;;;;;22.63;14.63;;;19.30;99.90;;;;;;5093100;28;20066;-74
2022/08/31 05:58:30;;;;;;;17.15;13.38;;;19.80;99.90;;;;;;5092207;28;20110;-74
2022/08/31 06:00:58;;;;;;;18.98;14.82;;;20.10;99.90;;;;;;5082535;28;20036;-74
2022/08/31 06:03:46;;;;;;;16.55;13.50;;;20.30;99.90;;;;;;5089596;28;20063;-74
2022/08/31 06:06:16;;;;;;;21.90;17.17;;;20.50;99.90;;;;;;5092414;28;20092;-74
2022/08/31 06:08:44;;;;;;;14.85;13.25;;;20.60;99.90;;;;;;5079665;28;20183;-73
2022/08/31 06:11:14;;;;;;;17.65;12.95;;;20.80;99.90;;;;;;5074093;28;20033;-75
2022/08/31 06:13:42;;;;;;;22.00;16.50;;;20.90;99.90;;;;;;5091827;28;20138;-75
2022/08/31 06:16:10;;;;;;;28.65;16.83;;;21.00;99.90;;;;;;5092260;28;20051;-74
2022/08/31 06:18:39;;;;;;;27.23;17.83;;;21.00;99.90;;;;;;5091717;28;20047;-75
2022/08/31 06:21:11;;;;;;;23.75;20.25;;;21.00;99.90;;;;;;5092156;28;20051;-75
2022/08/31 06:23:41;;;;;;;22.10;17.15;;;20.80;99.90;;;;;;5091018;28;20109;-75
2022/08/31 06:26:11;;;;;;;18.52;15.13;;;20.90;99.90;;;;;;5092065;28;20106;-74
2022/08/31 06:28:40;;;;;;;19.27;15.75;;;21.10;99.90;;;;;;5092174;28;20072;-75
2022/08/31 06:31:13;;;;;;;17.10;14.80;;;21.20;99.90;;;;;;5091923;28;20502;-76
2022/08/31 06:33:42;;;;;;;26.20;19.83;;;21.20;99.90;;;;;;5078175;28;20448;-74
2022/08/31 06:36:23;;;;;;;20.50;15.38;;;21.30;99.90;;;;;;5072196;28;20049;-74
2022/08/31 06:38:58;;;;;;;20.38;15.25;;;21.60;99.90;;;;;;5072438;28;20546;-74
2022/08/31 06:41:51;;;;;;;16.15;14.20;;;21.90;99.90;;;;;;5076290;28;20189;-74
2022/08/31 06:44:41;;;;;;;19.75;13.38;;;22.10;99.90;;;;;;5092920;28;20040;-74
2022/08/31 06:47:14;;;;;;;20.15;13.98;;;22.50;99.90;;;;;;5094045;28;20093;-75
2022/08/31 06:49:42;;;;;;;16.95;14.45;;;22.70;99.90;;;;;;5093077;28;20557;-74
2022/08/31 06:52:11;;;;;;;20.75;15.52;;;22.70;99.90;;;;;;5093700;28;20511;-73
2022/08/31 06:54:40;;;;;;;32.97;20.75;;;22.70;99.90;;;;;;5082841;28;20163;-74
2022/08/31 06:57:28;;;;;;;21.42;16.65;;;22.50;99.90;;;;;;5069078;28;20052;-74
2022/08/31 07:00:14;;;;;;;20.00;14.32;;;22.50;99.90;;;;;;5091347;28;20067;-73
2022/08/31 07:02:47;;;;;;;16.10;13.82;;;23.00;99.90;;;;;;5093321;28;20058;-75
2022/08/31 07:05:14;;;;;;;20.45;14.43;;;23.20;99.90;;;;;;5096313;28;20043;-74
2022/08/31 07:07:43;;;;;;;24.02;16.95;;;23.50;99.90;;;;;;5096074;28;20051;-75
2022/08/31 07:10:11;;;;;;;21.55;16.08;;;23.40;99.90;;;;;;5086366;28;20472;-74
2022/08/31 07:12:38;;;;;;;22.92;16.65;;;23.30;99.90;;;;;;5095702;28;20057;-74
2022/08/31 07:15:07;;;;;;;21.20;16.38;;;23.50;99.90;;;;;;5095461;28;20131;-73
2022/08/31 07:17:34;;;;;;;23.23;16.08;;;23.80;99.90;;;;;;5082369;28;20060;-74
2022/08/31 07:20:04;;;;;;;23.38;16.23;;;24.10;95.50;;;;;;5075459;28;20055;-74
2022/08/31 07:22:32;;;;;;;26.45;19.20;;;24.30;1.00;;;;;;5075732;28;20128;-74
2022/08/31 07:25:19;;;;;;;31.55;21.80;;;24.50;1.00;;;;;;5075957;28;20057;-76
2022/08/31 07:27:51;;;;;;;25.65;20.25;;;24.80;1.00;;;;;;5084972;28;20051;-76
2022/08/31 07:30:19;;;;;;;27.02;20.00;;;25.00;99.90;;;;;;5095487;28;20127;-75
2022/08/31 07:32:47;;;;;;;22.50;17.77;;;25.10;99.90;;;;;;5094551;28;20051;-75
2022/08/31 07:35:14;;;;;;;30.02;21.05;;;24.90;1.00;;;;;;5094522;28;20036;-75
2022/08/31 07:43:21;;;;;;;29.55;17.55;;;25.00;99.90;;;;;;5061545;28;20055;-74
2022/08/31 07:45:49;;;;;;;33.90;19.05;;;25.00;99.90;;;;;;5094865;28;20055;-75
2022/08/31 07:48:22;;;;;;;38.55;20.45;;;25.10;1.00;;;;;;5096289;28;20047;-75
2022/08/31 07:51:06;;;;;;;26.42;17.38;;;25.20;1.00;;;;;;5089738;28;20037;-75
2022/08/31 07:54:05;;;;;;;22.88;14.57;;;25.30;99.90;;;;;;5075073;28;20045;-75
2022/08/31 07:57:03;;;;;;;;;;;25.40;1.00;;;;;;5085767;28;20070;-74
2022/08/31 07:59:33;;;;;;;26.52;19.02;;;25.40;1.00;;;;;;5083846;28;19982;-75
2022/08/31 08:02:02;;;;;;;33.30;19.77;;;25.60;99.90;;;;;;5078797;28;20080;-74
2022/08/31 08:04:29;;;;;;;27.25;18.80;;;25.80;1.00;;;;;;5094526;28;20122;-75
2022/08/31 08:07:17;;;;;;;;;;;26.10;99.90;;;;;;5095742;28;20158;-74
2022/08/31 08:09:44;;;;;;;26.73;15.68;;;26.00;1.00;;;;;;5088024;28;19932;-75
2022/08/31 08:12:42;;;;;;;26.80;17.17;;;25.70;1.00;;;;;;5095946;28;20067;-74
2022/08/31 08:15:18;;;;;;;27.02;18.33;;;25.60;1.00;;;;;;5093951;28;20044;-74
2022/08/31 08:17:58;;;;;;;26.77;15.77;;;25.80;99.90;;;;;;5093990;28;20059;-75
2022/08/31 08:20:29;;;;;;;24.25;15.40;;;25.90;1.00;;;;;;5094736;28;20044;-75
2022/08/31 08:22:57;;;;;;;24.38;16.02;;;26.00;99.90;;;;;;5093757;28;20036;-73
2022/08/31 08:25:30;;;;;;;27.25;17.60;;;26.10;99.90;;;;;;5096067;28;20126;-73
2022/08/31 08:28:27;;;;;;;24.05;15.23;;;26.40;1.00;;;;;;5093330;28;20044;-75
2022/08/31 08:30:59;;;;;;;19.17;12.13;;;26.60;1.00;;;;;;5100897;28;20040;-74
2022/08/31 08:33:28;;;;;;;26.77;13.20;;;26.60;99.90;;;;;;5104210;28;20044;-74
2022/08/31 08:35:57;;;;;;;18.52;13.32;;;26.60;99.90;;;;;;5103049;28;20040;-74
2022/08/31 08:38:25;;;;;;;20.02;12.88;;;26.50;99.90;;;;;;5098845;28;20069;-74
2022/08/31 08:40:53;;;;;;;18.73;12.80;;;26.60;99.90;;;;;;5097256;28;20070;-75
2022/08/31 08:43:29;;;;;;;19.02;12.35;;;26.70;12.20;;;;;;5082703;28;20049;-74
2022/08/31 08:45:57;;;;;;;22.50;13.20;;;26.40;99.90;;;;;;5088362;28;20614;-75
2022/08/31 08:48:33;;;;;;;20.80;12.68;;;26.30;99.90;;;;;;5092772;28;20462;-75
2022/08/31 08:51:03;;;;;;;43.60;13.30;;;26.40;99.90;;;;;;5094486;28;20135;-75
2022/08/31 08:53:45;;;;;;;29.05;19.77;;;26.60;99.90;;;;;;5093717;28;20037;-74
2022/08/31 08:56:22;;;;;;;23.73;17.98;;;26.90;29.40;;;;;;5088770;28;20455;-76
2022/08/31 08:58:51;;;;;;;20.08;14.57;;;27.30;1.00;;;;;;5092739;28;20503;-74
2022/08/31 09:01:27;;;;;;;19.25;13.23;;;27.50;1.00;;;;;;5085000;28;20048;-74
2022/08/31 09:04:04;;;;;;;16.17;11.85;;;27.40;1.00;;;;;;5078875;28;20131;-75
2022/08/31 09:06:57;;;;;;;12.98;9.63;;;27.40;1.00;;;;;;5082194;28;20055;-76
2022/08/31 09:09:35;;;;;;;14.82;10.75;;;27.20;1.00;;;;;;5093824;28;20383;-75
2022/08/31 09:12:19;;;;;;;18.05;11.20;;;27.00;1.00;;;;;;5104553;28;20082;-75
2022/08/31 09:15:03;;;;;;;18.88;10.50;;;26.80;1.00;;;;;;5109776;28;20068;-75
2022/08/31 09:17:48;;;;;;;16.40;10.57;;;26.80;1.00;;;;;;5111967;28;20036;-73
2022/08/31 09:20:16;;;;;;;16.00;11.18;;;26.90;1.00;;;;;;5109860;28;20116;-75
2022/08/31 09:22:49;;;;;;;18.00;11.48;;;27.00;1.00;;;;;;5099702;28;20039;-75
2022/08/31 09:25:28;;;;;;;43.67;15.02;;;27.20;1.00;;;;;;5095794;28;20059;-75
2022/08/31 09:28:35;;;;;;;15.75;11.27;;;27.40;1.00;;;;;;5069754;28;20052;-75
2022/08/31 09:31:05;;;;;;;15.07;11.15;;;27.90;1.00;;;;;;5102790;28;20050;-75
2022/08/31 09:33:35;;;;;;;15.00;12.73;;;28.10;1.00;;;;;;5096708;28;20446;-74
2022/08/31 09:36:17;;;;;;;16.10;12.27;;;28.40;1.00;;;;;;5097890;28;20052;-74
2022/08/31 09:38:46;;;;;;;14.45;12.05;;;28.80;34.20;;;;;;5093483;28;20044;-75
2022/08/31 09:41:34;;;;;;;14.88;12.00;;;29.00;1.00;;;;;;5077587;28;20040;-75
2022/08/31 09:44:31;;;;;;;23.48;17.50;;;29.10;26.40;;;;;;5082375;28;20048;-75
2022/08/31 09:47:03;;;;;;;13.75;10.60;;;28.90;11.90;;;;;;5095774;28;20042;-75
2022/08/31 09:49:35;;;;;;;14.45;10.10;;;28.80;2.30;;;;;;5094369;28;20131;-74
2022/08/31 09:55:12;;;;;;;16.88;12.40;;;28.40;25.70;;;;;;5093331;28;20044;-75
2022/08/31 09:55:20;;;;;;;12.73;10.80;;;28.60;1.00;;;;;;5096443;28;20407;-75
2022/08/31 09:57:53;;;;;;;17.10;12.45;;;28.70;14.50;;;;;;5085479;28;20059;-75
2022/08/31 10:00:33;;;;;;;14.63;10.57;;;28.80;29.90;;;;;;5077130;28;20515;-74
2022/08/31 10:03:17;;;;;;;14.95;10.82;;;28.80;28.10;;;;;;5093869;28;20050;-75
2022/08/31 10:05:45;;;;;;;14.35;11.15;;;29.10;50.70;;;;;;5094813;28;20052;-75
2022/08/31 10:08:41;;;;;;;13.75;10.63;;;29.70;71.80;;;;;;5087397;28;20064;-76
2022/08/31 10:11:12;;;;;;;;;;;29.90;81.20;;;;;;5079598;28;20391;-76
2022/08/31 10:13:43;;;;;;;11.43;10.23;;;30.00;87.70;;;;;;5073565;28;19924;-75
2022/08/31 10:16:21;;;;;;;17.63;11.65;;;29.80;94.60;;;;;;5074111;28;20551;-76
2022/08/31 10:18:59;;;;;;;16.30;11.57;;;30.10;96.10;;;;;;5079225;28;20353;-75
2022/08/31 10:21:37;;;;;;;14.40;11.70;;;30.30;99.90;;;;;;5093616;28;20032;-74
2022/08/31 10:24:20;;;;;;;15.38;11.43;;;30.20;99.90;;;;;;5088481;28;20127;-74
2022/08/31 10:27:07;;;;;;;20.50;12.75;;;30.20;99.90;;;;;;5093629;28;20036;-75
2022/08/31 10:29:40;;;;;;;12.25;10.52;;;30.40;99.90;;;;;;5093018;28;20044;-76
2022/08/31 10:32:23;;;;;;;16.05;12.07;;;30.70;99.90;;;;;;5093342;28;20044;-75
2022/08/31 10:35:05;;;;;;;18.95;10.32;;;30.90;99.80;;;;;;5093699;28;20123;-76
2022/08/31 10:37:53;;;;;;;16.60;12.05;;;31.10;99.30;;;;;;5089932;28;20054;-76
2022/08/31 10:40:28;;;;;;;13.48;12.07;;;30.80;99.30;;;;;;5092767;28;20411;-75
2022/08/31 10:43:15;;;;;;;15.77;12.18;;;30.70;99.40;;;;;;5078940;28;20059;-75
2022/08/31 10:45:47;;;;;;;12.68;10.82;;;30.60;99.10;;;;;;5076236;28;20048;-76
2022/08/31 10:48:17;;;;;;;15.13;11.32;;;30.30;99.30;;;;;;5086051;28;20067;-76
2022/08/31 10:51:04;;;;;;;13.48;12.15;;;30.20;99.90;;;;;;5079990;28;20572;-75
2022/08/31 10:53:49;;;;;;;14.65;12.00;;;29.90;99.90;;;;;;5093263;28;20044;-76
2022/08/31 10:56:22;;;;;;;16.80;11.90;;;29.60;99.90;;;;;;5093027;28;20517;-76
2022/08/31 10:59:03;;;;;;;16.60;12.65;;;28.70;99.90;;;;;;5093310;28;20048;-75
2022/08/31 11:01:42;;;;;;;13.13;10.40;;;28.50;99.90;;;;;;5092528;28;20072;-76
2022/08/31 11:04:42;;;;;;;79.50;19.27;;;28.20;99.90;;;;;;5090854;28;20070;-75
2022/08/31 11:07:25;;;;;;;11.43;9.60;;;28.00;99.90;;;;;;5075752;28;20041;-76
2022/08/31 11:10:04;;;;;;;12.68;10.52;;;27.90;1.00;;;;;;5090531;28;20043;-76
2022/08/31 11:12:39;;;;;;;8.13;7.32;;;27.90;1.00;;;;;;5093621;28;20178;-75
2022/08/31 11:15:30;;;;;;;9.52;7.60;;;27.80;1.00;;;;;;5091684;28;20055;-74
2022/08/31 11:18:14;;;;;;;11.52;8.00;;;27.70;1.00;;;;;;5083036;28;20067;-75
2022/08/31 11:21:09;;;;;;;12.20;8.90;;;27.70;1.00;;;;;;5088603;28;20109;-76
2022/08/31 11:24:04;;;;;;;7.80;7.10;;;27.80;1.00;;;;;;5091099;28;20032;-76
2022/08/31 11:26:49;;;;;;;8.13;7.10;;;27.80;1.00;;;;;;5085004;28;20040;-76
2022/08/31 11:29:29;;;;;;;10.55;6.72;;;27.60;1.00;;;;;;5095402;28;20057;-75
2022/08/31 11:32:03;;;;;;;7.22;6.40;;;27.50;1.00;;;;;;5096835;28;20036;-75
2022/08/31 11:34:46;;;;;;;8.25;6.57;;;27.50;1.00;;;;;;5095885;28;20044;-77
2022/08/31 11:37:34;;;;;;;9.50;6.82;;;27.60;1.00;;;;;;5094449;28;20038;-76
2022/08/31 11:40:03;;;;;;;12.48;8.98;;;27.80;1.00;;;;;;5085773;28;20074;-75
2022/08/31 11:43:00;;;;;;;18.05;12.68;;;27.90;1.00;;;;;;5091818;28;20441;-75
2022/08/31 11:45:31;;;;;;;7.57;6.72;;;28.00;1.00;;;;;;5075199;28;20456;-76
2022/08/31 11:47:59;;;;;;;9.35;7.35;;;28.20;1.00;;;;;;5092071;28;20077;-75
2022/08/31 11:51:01;;;;;;;8.10;6.63;;;28.20;1.00;;;;;;5095161;28;20055;-77
2022/08/31 11:53:34;;;;;;;14.65;9.95;;;28.30;99.90;;;;;;5093224;28;20081;-76
2022/08/31 11:56:05;;;;;;;58.78;46.15;;;28.40;99.90;;;;;;5101074;28;20066;-76
2022/08/31 11:58:38;;;;;;;20.25;14.77;;;28.70;99.90;;;;;;5099374;28;20044;-75
2022/08/31 12:01:35;;;;;;;12.43;10.13;;;29.00;1.00;;;;;;5096846;28;20498;-75
2022/08/31 12:04:05;;;;;;;;;;;29.10;1.00;;;;;;5096360;28;20059;-76
2022/08/31 12:07:09;;;;;;;8.43;6.30;;;29.10;99.90;;;;;;5098374;28;20367;-77
2022/08/31 12:10:14;;;;;;;9.85;7.35;;;28.70;1.00;;;;;;5098098;28;20058;-76
2022/08/31 12:13:18;;;;;;;8.32;6.88;;;28.30;1.00;;;;;;5098562;28;20487;-76
2022/08/31 12:16:08;;;;;;;8.52;6.13;;;28.30;99.90;;;;;;5093618;28;20090;-76
2022/08/31 12:18:49;;;;;;;8.75;6.40;;;28.30;1.00;;;;;;5091155;28;20040;-76
2022/08/31 12:24:22;;;;;;;7.00;5.97;;;27.80;1.00;;;;;;5101605;28;20055;-76
2022/08/31 12:27:20;;;;;;;7.50;6.45;;;27.70;1.00;;;;;;5112625;28;20040;-77
2022/08/31 12:29:49;;;;;;;8.35;6.22;;;27.50;1.00;;;;;;5113723;28;20064;-77
2022/08/31 12:32:28;;;;;;;6.43;5.82;;;27.50;1.00;;;;;;5098242;28;20062;-76
2022/08/31 12:35:03;;;;;;;7.65;6.82;;;27.50;99.90;;;;;;5098909;28;20434;-76
2022/08/31 12:37:32;;;;;;;11.50;7.00;;;27.70;99.90;;;;;;5097635;28;20040;-76
2022/08/31 12:40:16;;;;;;;9.38;6.45;;;27.90;99.90;;;;;;5096595;28;20052;-77
2022/08/31 12:42:58;;;;;;;10.75;6.85;;;28.10;99.90;;;;;;5097232;28;20105;-76
2022/08/31 12:45:56;;;;;;;10.18;8.27;;;28.20;30.10;;;;;;5095792;28;20044;-76
2022/08/31 12:48:34;;;;;;;8.88;7.97;;;28.40;99.90;;;;;;5086066;28;20056;-76
2022/08/31 12:51:11;;;;;;;14.20;10.05;;;28.50;99.90;;;;;;5095854;28;20044;-75
2022/08/31 12:53:55;;;;;;;15.63;11.35;;;28.70;1.00;;;;;;5089729;28;20040;-76
2022/08/31 12:56:29;;;;;;;10.20;8.45;;;28.70;99.90;;;;;;5096892;28;20047;-76
2022/08/31 12:59:07;;;;;;;7.28;6.18;;;28.80;1.00;;;;;;5097258;28;20093;-75
2022/08/31 13:01:41;;;;;;;8.43;6.47;;;29.00;1.00;;;;;;5096429;28;20044;-76
2022/08/31 13:04:09;;;;;;;8.52;7.60;;;29.10;99.90;;;;;;5097040;28;20067;-76
2022/08/31 13:06:39;;;;;;;10.85;9.05;;;29.30;1.00;;;;;;5096468;28;20123;-76
2022/08/31 13:09:07;;;;;;;7.22;6.40;;;29.40;1.00;;;;;;5096970;28;20056;-76
2022/08/31 13:11:38;;;;;;;9.38;7.65;;;29.20;1.00;;;;;;5096781;28;20089;-76
2022/08/31 13:14:13;;;;;;;11.75;8.13;;;29.30;1.00;;;;;;5095374;28;20056;-75
2022/08/31 13:16:44;;;;;;;8.55;6.95;;;29.40;85.80;;;;;;5095674;28;20040;-75
2022/08/31 13:19:24;;;;;;;12.27;8.05;;;29.40;1.00;;;;;;5095236;28;20051;-75
2022/08/31 13:21:55;;;;;;;9.70;7.05;;;29.60;1.00;;;;;;5096570;28;20449;-77